createdAt,value
2018-10-09T00:01:36.073Z,100453.13
2018-10-09T00:04:04.110Z,100453.13
2018-10-09T00:06:31.991Z,100449.84
2018-10-09T00:08:59.906Z,100457.89
2018-10-09T00:11:27.704Z,100451.65
2018-10-09T00:14:02.608Z,100459.38
2018-10-09T00:16:30.497Z,100467.75
2018-10-09T00:18:58.322Z,100460.84
2018-10-09T00:21:26.437Z,100462.48
2018-10-09T00:23:54.303Z,100471.02
2018-10-09T00:26:22.092Z,100466.92
2018-10-09T00:28:49.970Z,100475.60
2018-10-09T00:31:17.851Z,100471.19
2018-10-09T00:33:45.676Z,100471.17
2018-10-09T00:36:16.947Z,100468.70
2018-10-09T00:38:44.831Z,100463.97
2018-10-09T00:41:12.757Z,100462.98
2018-10-09T00:43:40.604Z,100459.50
2018-10-09T00:46:08.500Z,100462.63
2018-10-09T00:48:36.386Z,100457.53
2018-10-09T00:51:04.579Z,100459.83
2018-10-09T00:53:32.424Z,100465.83
2018-10-09T00:56:00.722Z,100468.30
2018-10-09T00:58:28.591Z,100469.62
2018-10-09T01:00:56.826Z,100458.29
2018-10-09T01:03:24.627Z,100458.77
2018-10-09T01:05:52.752Z,100459.09
2018-10-09T01:08:20.620Z,100465.97
2018-10-09T01:10:48.534Z,100464.84
2018-10-09T01:13:16.380Z,100469.12
2018-10-09T01:15:44.547Z,100468.47
2018-10-09T01:18:12.426Z,100465.83
2018-10-09T01:20:40.343Z,100462.39
2018-10-09T01:23:08.131Z,100460.91
2018-10-09T01:25:36.083Z,100458.64
2018-10-09T01:28:03.967Z,100455.04
2018-10-09T01:30:32.728Z,100456.16
2018-10-09T01:33:01.107Z,100453.05
2018-10-09T01:35:28.915Z,100451.23
2018-10-09T01:37:56.867Z,100447.16
2018-10-09T01:40:25.436Z,100450.27
2018-10-09T01:42:53.319Z,100446.17
2018-10-09T01:45:21.195Z,100452.38
2018-10-09T01:47:49.155Z,100447.95
2018-10-09T01:50:17.100Z,100452.70
2018-10-09T01:52:45.203Z,100442.20
2018-10-09T01:55:13.031Z,100445.02
2018-10-09T01:57:40.957Z,100440.56
2018-10-09T02:00:09.588Z,100443.05
2018-10-09T02:02:37.512Z,100439.58
2018-10-09T02:05:05.727Z,100444.28
2018-10-09T02:07:33.825Z,100449.52
2018-10-09T02:10:01.769Z,100448.86
2018-10-09T02:12:30.067Z,100448.39
2018-10-09T02:14:58.186Z,100442.01
2018-10-09T02:17:26.055Z,100440.98
2018-10-09T02:19:53.881Z,100442.80
2018-10-09T02:22:21.753Z,100440.95
2018-10-09T02:24:49.619Z,100441.22
2018-10-09T02:27:17.650Z,100444.47
2018-10-09T02:29:45.484Z,100447.22
2018-10-09T02:32:13.360Z,100447.41
2018-10-09T02:34:41.142Z,100455.39
2018-10-09T02:37:09.067Z,100456.91
2018-10-09T02:39:36.863Z,100453.30
2018-10-09T02:42:04.679Z,100455.77
2018-10-09T02:44:32.521Z,100459.45
2018-10-09T02:47:00.359Z,100456.50
2018-10-09T02:49:28.198Z,100457.61
2018-10-09T02:51:55.986Z,100453.20
2018-10-09T02:54:24.055Z,100450.68
2018-10-09T02:56:51.859Z,100443.28
2018-10-09T02:59:19.755Z,100448.66
2018-10-09T03:01:47.674Z,100449.17
2018-10-09T03:04:15.503Z,100446.94
2018-10-09T03:06:43.315Z,100449.75
2018-10-09T03:09:11.100Z,100458.55
2018-10-09T03:11:38.878Z,100463.05
2018-10-09T03:14:06.835Z,100461.47
2018-10-09T03:16:34.639Z,100464.44
2018-10-09T03:19:02.510Z,100461.70
2018-10-09T03:21:30.313Z,100462.73
2018-10-09T03:23:58.114Z,100465.91
2018-10-09T03:26:25.867Z,100464.04
2018-10-09T03:28:53.684Z,100461.20
2018-10-09T03:31:21.459Z,100452.27
2018-10-09T03:33:49.591Z,100456.02
2018-10-09T03:36:17.354Z,100451.94
2018-10-09T03:38:45.133Z,100458.53
2018-10-09T03:41:12.919Z,100456.46
2018-10-09T03:43:40.776Z,100461.80
2018-10-09T03:46:08.603Z,100464.58
2018-10-09T03:48:36.755Z,100470.64
2018-10-09T03:51:04.601Z,100470.00
2018-10-09T03:53:32.736Z,100474.61
2018-10-09T03:56:00.795Z,100466.78
2018-10-09T03:58:28.588Z,100473.03
2018-10-09T04:00:56.398Z,100475.33
2018-10-09T04:03:24.195Z,100478.28
2018-10-09T04:05:52.014Z,100474.34
2018-10-09T04:08:19.827Z,100477.45
2018-10-09T04:10:47.570Z,100483.01
2018-10-09T04:13:15.343Z,100480.17
2018-10-09T04:15:43.223Z,100480.60
2018-10-09T04:18:11.087Z,100483.72
2018-10-09T04:20:38.899Z,100493.36
2018-10-09T04:23:06.704Z,100491.77
2018-10-09T04:25:34.565Z,100498.16
2018-10-09T04:28:02.412Z,100503.19
2018-10-09T04:30:30.183Z,100505.63
2018-10-09T04:32:58.123Z,100508.89
2018-10-09T04:35:25.975Z,100512.97
2018-10-09T04:37:53.855Z,100510.20
2018-10-09T04:40:21.738Z,100512.34
2018-10-09T04:42:49.510Z,100510.42
2018-10-09T04:45:17.352Z,100512.92
2018-10-09T04:47:45.190Z,100505.02
2018-10-09T04:50:12.945Z,100504.84
2018-10-09T04:52:40.807Z,100499.27
2018-10-09T04:55:08.595Z,100500.88
2018-10-09T04:57:36.630Z,100502.95
2018-10-09T05:00:04.498Z,100502.31
2018-10-09T05:02:32.282Z,100498.59
2018-10-09T05:05:00.374Z,100505.47
2018-10-09T05:07:28.134Z,100509.44
2018-10-09T05:09:55.899Z,100508.95
2018-10-09T05:12:23.714Z,100514.36
2018-10-09T05:14:51.526Z,100515.02
2018-10-09T05:17:19.663Z,100518.83
2018-10-09T05:19:47.468Z,100528.64
2018-10-09T05:22:15.263Z,100520.64
2018-10-09T05:24:43.047Z,100518.20
2018-10-09T05:27:10.811Z,100525.92
2018-10-09T05:29:38.578Z,100522.81
2018-10-09T05:32:06.542Z,100517.25
2018-10-09T05:34:34.384Z,100516.00
2018-10-09T05:37:02.158Z,100528.08
2018-10-09T05:39:30.020Z,100516.92
2018-10-09T05:41:57.926Z,100518.05
2018-10-09T05:44:26.187Z,100517.00
2018-10-09T05:46:53.875Z,100514.53
2018-10-09T05:49:21.675Z,100517.97
2018-10-09T05:51:49.438Z,100521.69
2018-10-09T05:54:17.227Z,100527.59
2018-10-09T05:56:45.022Z,100523.66
2018-10-09T05:59:12.827Z,100520.08
2018-10-09T06:01:40.603Z,100523.89
2018-10-09T06:04:08.546Z,100524.13
2018-10-09T06:06:36.367Z,100520.71
2018-10-09T06:09:07.014Z,100523.38
2018-10-09T06:11:34.771Z,100527.97
2018-10-09T06:14:02.582Z,100527.86
2018-10-09T06:16:30.375Z,100531.47
2018-10-09T06:18:58.219Z,100528.95
2018-10-09T06:21:26.113Z,100533.05
2018-10-09T06:23:53.896Z,100530.28
2018-10-09T06:26:21.746Z,100525.42
2018-10-09T06:28:50.583Z,100527.94
2018-10-09T06:31:18.407Z,100519.69
2018-10-09T06:33:46.249Z,100519.91
2018-10-09T06:36:14.011Z,100522.50
2018-10-09T06:38:41.796Z,100516.03
2018-10-09T06:41:09.549Z,100521.87
2018-10-09T06:43:37.424Z,100519.34
2018-10-09T06:46:05.242Z,100519.42
2018-10-09T06:48:33.043Z,100521.27
2018-10-09T06:51:00.979Z,100524.44
2018-10-09T06:53:28.912Z,100524.30
2018-10-09T06:55:56.591Z,100519.73
2018-10-09T06:58:24.405Z,100521.23
2018-10-09T07:00:52.228Z,100523.36
2018-10-09T07:03:20.029Z,100525.94
2018-10-09T07:05:47.819Z,100526.84
2018-10-09T07:08:15.620Z,100525.90
2018-10-09T07:10:43.567Z,100528.58
2018-10-09T07:13:11.351Z,100527.84
2018-10-09T07:15:39.132Z,100522.92
2018-10-09T07:18:06.951Z,100538.48
2018-10-09T07:20:34.740Z,100535.45
2018-10-09T07:23:02.669Z,100545.41
2018-10-09T07:25:30.442Z,100547.55
2018-10-09T07:27:58.296Z,100542.66
2018-10-09T07:30:26.005Z,100539.34
2018-10-09T07:32:53.802Z,100548.82
2018-10-09T07:35:21.560Z,100557.88
2018-10-09T07:37:49.326Z,100555.64
2018-10-09T07:40:17.118Z,100555.17
2018-10-09T07:42:44.953Z,100565.70
2018-10-09T07:45:12.811Z,100575.32
2018-10-09T07:47:40.594Z,100582.13
2018-10-09T07:50:08.411Z,100574.51
2018-10-09T07:52:36.142Z,100586.07
2018-10-09T07:55:03.951Z,100583.75
2018-10-09T07:57:31.992Z,100578.12
2018-10-09T07:59:59.743Z,100579.59
2018-10-09T08:02:27.543Z,100578.97
2018-10-09T08:04:55.452Z,100579.14
2018-10-09T08:07:23.231Z,100580.78
2018-10-09T08:09:50.995Z,100576.30
2018-10-09T08:12:18.810Z,100583.16
2018-10-09T08:14:46.627Z,100580.41
2018-10-09T08:17:14.408Z,100584.03
2018-10-09T08:19:42.302Z,100586.34
2018-10-09T08:22:10.130Z,100585.38
2018-10-09T08:24:37.960Z,100597.40
2018-10-09T08:27:05.799Z,100593.61
2018-10-09T08:29:33.572Z,100592.94
2018-10-09T08:32:01.347Z,100587.34
2018-10-09T08:34:29.284Z,100590.11
2018-10-09T08:36:57.068Z,100587.16
2018-10-09T08:39:24.907Z,100590.58
2018-10-09T08:41:52.739Z,100587.88
2018-10-09T08:44:20.607Z,100589.05
2018-10-09T08:46:48.443Z,100588.56
2018-10-09T08:49:16.735Z,100583.33
2018-10-09T08:51:44.932Z,100579.67
2018-10-09T08:54:12.773Z,100579.14
2018-10-09T08:56:40.640Z,100582.66
2018-10-09T08:59:08.799Z,100579.84
2018-10-09T09:01:36.632Z,100578.31
2018-10-09T09:04:04.559Z,100574.32
2018-10-09T09:06:32.675Z,100565.89
2018-10-09T09:09:00.796Z,100570.30
2018-10-09T09:11:28.614Z,100567.53
2018-10-09T09:13:56.527Z,100561.05
2018-10-09T09:16:24.391Z,100557.73
2018-10-09T09:18:52.288Z,100555.53
2018-10-09T09:21:20.132Z,100553.25
2018-10-09T09:23:47.887Z,100550.52
2018-10-09T09:26:15.848Z,100555.02
2018-10-09T09:28:43.619Z,100552.95
2018-10-09T09:31:11.411Z,100552.45
2018-10-09T09:33:39.221Z,100542.53
2018-10-09T09:36:07.059Z,100542.39
2018-10-09T09:38:34.850Z,100557.51
2018-10-09T09:41:03.087Z,100551.02
2018-10-09T09:43:30.918Z,100556.43
2018-10-09T09:48:33.332Z,100547.31
2018-10-09T09:51:01.311Z,100546.01
2018-10-09T09:53:29.150Z,100539.75
2018-10-09T09:55:57.043Z,100544.67
2018-10-09T09:58:25.046Z,100542.03
2018-10-09T10:00:57.535Z,100538.88
2018-10-09T10:03:26.128Z,100539.92
2018-10-09T10:05:53.959Z,100536.55
2018-10-09T10:08:21.744Z,100531.29
2018-10-09T10:10:49.625Z,100533.11
2018-10-09T10:13:17.452Z,100534.80
2018-10-09T10:15:45.258Z,100529.58
2018-10-09T10:18:13.241Z,100526.19
2018-10-09T10:20:41.059Z,100528.77
2018-10-09T10:23:09.449Z,100531.70
2018-10-09T10:25:37.943Z,100523.36
2018-10-09T10:28:06.003Z,100519.59
2018-10-09T10:30:33.810Z,100521.28
2018-10-09T10:33:01.867Z,100517.35
2018-10-09T10:35:29.632Z,100518.77
2018-10-09T10:37:57.463Z,100515.53
2018-10-09T10:40:25.329Z,100507.98
2018-10-09T10:42:53.099Z,100509.73
2018-10-09T10:45:20.900Z,100506.06
2018-10-09T10:47:48.684Z,100499.03
2018-10-09T10:50:16.815Z,100499.77
2018-10-09T10:52:44.707Z,100501.25
2018-10-09T10:55:12.492Z,100503.91
2018-10-09T10:57:40.329Z,100494.99
2018-10-09T11:00:08.232Z,100498.52
2018-10-09T11:02:36.092Z,100490.11
2018-10-09T11:05:03.981Z,100487.47
2018-10-09T11:07:31.927Z,100478.28
2018-10-09T11:09:59.763Z,100474.73
2018-10-09T11:12:27.985Z,100472.83
2018-10-09T11:14:56.190Z,100470.98
2018-10-09T11:17:24.091Z,100462.95
2018-10-09T11:19:52.143Z,100453.45
2018-10-09T11:22:20.245Z,100452.12
2018-10-09T11:24:55.030Z,100453.84
2018-10-09T11:27:22.812Z,100449.70
2018-10-09T11:29:50.968Z,100453.27
2018-10-09T11:32:18.783Z,100457.23
2018-10-09T11:34:46.682Z,100447.17
2018-10-09T11:37:14.490Z,100449.75
2018-10-09T11:39:42.397Z,100445.00
2018-10-09T11:42:10.505Z,100446.63
2018-10-09T11:44:38.355Z,100437.02
2018-10-09T11:47:06.465Z,100443.91
2018-10-09T11:49:34.340Z,100436.00
2018-10-09T11:52:02.149Z,100438.67
2018-10-09T11:54:30.243Z,100432.23
2018-10-09T11:56:58.104Z,100434.67
2018-10-09T11:59:26.044Z,100432.59
2018-10-09T12:01:53.862Z,100429.34
2018-10-09T12:04:21.686Z,100419.45
2018-10-09T12:06:49.662Z,100417.69
2018-10-09T12:09:17.487Z,100415.80
2018-10-09T12:11:48.484Z,100413.45
2018-10-09T12:14:16.279Z,100414.70
2018-10-09T12:16:44.444Z,100411.41
2018-10-09T12:19:12.310Z,100409.50
2018-10-09T12:21:40.120Z,100405.44
2018-10-09T12:24:07.957Z,100404.84
2018-10-09T12:26:35.753Z,100397.16
2018-10-09T12:29:03.609Z,100404.20
2018-10-09T12:31:31.399Z,100399.85
2018-10-09T12:33:59.232Z,100396.41
2018-10-09T12:36:27.184Z,100389.70
2018-10-09T12:38:54.960Z,100384.06
2018-10-09T12:41:23.163Z,100382.75
2018-10-09T12:43:50.950Z,100376.84
2018-10-09T12:46:18.732Z,100378.39
2018-10-09T12:48:46.543Z,100382.71
2018-10-09T12:51:14.344Z,100375.77
2018-10-09T12:53:42.184Z,100367.95
2018-10-09T12:56:09.958Z,100362.00
2018-10-09T12:58:37.842Z,100366.29
2018-10-09T13:01:05.923Z,100366.56
2018-10-09T13:03:33.764Z,100369.34
2018-10-09T13:06:01.607Z,100360.92
2018-10-09T13:08:29.385Z,100364.03
2018-10-09T13:10:57.148Z,100363.56
2018-10-09T13:13:25.030Z,100362.67
2018-10-09T13:15:52.843Z,100364.56
2018-10-09T13:18:20.671Z,100361.59
2018-10-09T13:20:48.441Z,100362.48
2018-10-09T13:23:16.222Z,100366.17
2018-10-09T13:25:44.024Z,100365.18
2018-10-09T13:28:11.837Z,100362.41
2018-10-09T13:30:39.681Z,100359.50
2018-10-09T13:33:07.845Z,100358.38
2018-10-09T13:35:35.627Z,100356.25
2018-10-09T13:38:03.467Z,100353.11
2018-10-09T13:40:31.323Z,100348.92
2018-10-09T13:42:59.116Z,100348.33
2018-10-09T13:45:26.885Z,100347.34
2018-10-09T13:47:54.673Z,100349.31
2018-10-09T13:50:22.496Z,100345.52
2018-10-09T13:52:50.396Z,100342.41
2018-10-09T13:55:18.322Z,100348.68
2018-10-09T13:57:46.036Z,100343.88
2018-10-09T14:00:14.082Z,100344.61
2018-10-09T14:02:41.840Z,100335.41
2018-10-09T14:05:09.637Z,100333.28
2018-10-09T14:07:37.456Z,100318.94
2018-10-09T14:10:05.757Z,100324.39
2018-10-09T14:12:33.524Z,100330.30
2018-10-09T14:15:01.613Z,100319.19
2018-10-09T14:17:29.341Z,100317.41
2018-10-09T14:20:00.131Z,100322.57
2018-10-09T14:22:28.130Z,100310.70
2018-10-09T14:24:55.959Z,100313.37
2018-10-09T14:27:23.825Z,100314.22
2018-10-09T14:29:51.707Z,100312.71
2018-10-09T14:32:19.642Z,100307.52
2018-10-09T14:34:47.550Z,100309.52
2018-10-09T14:40:25.743Z,100310.93
2018-10-09T14:42:53.551Z,100309.39
2018-10-09T14:45:21.314Z,100311.72
2018-10-09T14:47:49.091Z,100313.25
2018-10-09T14:50:16.871Z,100308.70
2018-10-09T14:52:44.631Z,100301.33
2018-10-09T14:55:12.420Z,100313.22
2018-10-09T14:57:40.164Z,100310.00
2018-10-09T15:00:09.587Z,100317.83
2018-10-09T15:02:37.684Z,100323.12
2018-10-09T15:05:05.566Z,100322.27
2018-10-09T15:07:33.585Z,100317.09
2018-10-09T15:10:01.345Z,100316.97
2018-10-09T15:12:29.106Z,100311.87
2018-10-09T15:14:56.915Z,100319.05
2018-10-09T15:17:24.760Z,100324.25
2018-10-09T15:19:59.088Z,100326.02
2018-10-09T15:22:27.179Z,100320.54
2018-10-09T15:24:54.961Z,100317.30
2018-10-09T15:27:22.796Z,100314.11
2018-10-09T15:29:50.588Z,100315.73
2018-10-09T15:32:18.361Z,100321.96
2018-10-09T15:34:46.121Z,100318.30
2018-10-09T15:37:13.910Z,100324.66
2018-10-09T15:39:41.642Z,100322.08
2018-10-09T15:42:09.390Z,100321.50
2018-10-09T15:44:37.259Z,100322.37
2018-10-09T15:47:05.377Z,100322.37
2018-10-09T15:49:33.095Z,100319.87
2018-10-09T15:52:00.888Z,100325.94
2018-10-09T15:54:28.629Z,100325.34
2018-10-09T15:56:56.387Z,100316.02
2018-10-09T15:59:24.291Z,100317.73
2018-10-09T16:01:52.130Z,100316.11
2018-10-09T16:04:20.084Z,100319.88
2018-10-09T16:06:48.033Z,100320.55
2018-10-09T16:09:15.899Z,100314.05
2018-10-09T16:11:43.727Z,100310.36
2018-10-09T16:14:11.508Z,100309.69
2018-10-09T16:16:39.315Z,100309.30
2018-10-09T16:19:07.127Z,100306.34
2018-10-09T16:21:35.224Z,100314.23
2018-10-09T16:24:03.017Z,100314.69
2018-10-09T16:26:30.810Z,100316.66
2018-10-09T16:28:58.622Z,100306.91
2018-10-09T16:31:26.438Z,100314.33
2018-10-09T16:33:57.524Z,100322.34
2018-10-09T16:36:25.343Z,100323.55
2018-10-09T16:38:53.201Z,100333.73
2018-10-09T16:41:21.023Z,100322.90
2018-10-09T16:43:48.835Z,100319.99
2018-10-09T16:46:16.635Z,100319.28
2018-10-09T16:48:44.384Z,100326.55
2018-10-09T16:51:12.131Z,100326.67
2018-10-09T16:53:39.915Z,100327.22
2018-10-09T16:56:07.802Z,100329.53
2018-10-09T16:58:35.532Z,100332.30
2018-10-09T17:01:04.471Z,100329.70
2018-10-09T17:03:32.227Z,100333.81
2018-10-09T17:05:59.995Z,100331.86
2018-10-09T17:08:27.908Z,100328.72
2018-10-09T17:10:55.668Z,100336.39
2018-10-09T17:13:23.722Z,100339.99
2018-10-09T17:15:51.795Z,100338.69
2018-10-09T17:18:19.599Z,100335.23
2018-10-09T17:20:47.335Z,100333.93
2018-10-09T17:23:15.193Z,100336.47
2018-10-09T17:25:43.824Z,100340.04
2018-10-09T17:28:11.663Z,100341.28
2018-10-09T17:30:39.410Z,100343.01
2018-10-09T17:33:07.225Z,100343.94
2018-10-09T17:35:38.707Z,100341.89
2018-10-09T17:38:06.559Z,100343.81
2018-10-09T17:40:34.350Z,100345.56
2018-10-09T17:43:02.188Z,100346.28
2018-10-09T17:45:30.034Z,100340.98
2018-10-09T17:47:57.919Z,100342.37
2018-10-09T17:50:25.746Z,100352.13
2018-10-09T17:52:53.572Z,100344.58
2018-10-09T17:55:21.347Z,100347.34
2018-10-09T17:57:49.117Z,100348.14
2018-10-09T18:00:16.916Z,100351.24
2018-10-09T18:02:45.124Z,100352.52
2018-10-09T18:05:13.008Z,100358.17
2018-10-09T18:07:40.816Z,100353.97
2018-10-09T18:10:08.631Z,100357.70
2018-10-09T18:12:36.508Z,100355.27
2018-10-09T18:15:04.430Z,100353.38
2018-10-09T18:17:32.572Z,100356.92
2018-10-09T18:20:00.996Z,100360.37
2018-10-09T18:22:28.784Z,100360.11
2018-10-09T18:24:57.019Z,100354.63
2018-10-09T18:27:24.972Z,100363.88
2018-10-09T18:29:52.762Z,100364.12
2018-10-09T18:32:20.629Z,100366.90
2018-10-09T18:34:48.412Z,100365.53
2018-10-09T18:37:16.203Z,100363.45
2018-10-09T18:39:43.955Z,100359.09
2018-10-09T18:42:11.739Z,100353.88
2018-10-09T18:44:39.585Z,100359.99
2018-10-09T18:47:12.004Z,100357.41
2018-10-09T18:49:39.750Z,100367.90
2018-10-09T18:52:07.595Z,100367.16
2018-10-09T18:54:35.403Z,100375.20
2018-10-09T18:57:03.260Z,100369.61
2018-10-09T18:59:31.108Z,100369.81
2018-10-09T19:01:58.863Z,100375.05
2018-10-09T19:04:26.661Z,100378.30
2018-10-09T19:06:54.528Z,100381.48
2018-10-09T19:09:26.029Z,100378.75
2018-10-09T19:11:53.807Z,100376.66
2018-10-09T19:14:21.630Z,100373.61
2018-10-09T19:16:49.459Z,100380.38
2018-10-09T19:19:17.275Z,100378.75
2018-10-09T19:21:45.383Z,100378.29
2018-10-09T19:24:13.285Z,100382.81
2018-10-09T19:26:41.136Z,100376.64
2018-10-09T19:29:09.200Z,100387.94
2018-10-09T19:31:37.067Z,100388.84
2018-10-09T19:34:05.103Z,100387.34
2018-10-09T19:36:32.886Z,100383.86
2018-10-09T19:39:00.845Z,100379.75
2018-10-09T19:41:28.628Z,100380.95
2018-10-09T19:43:56.551Z,100379.44
2018-10-09T19:46:24.362Z,100383.27
2018-10-09T19:48:52.245Z,100386.22
2018-10-09T19:51:20.304Z,100384.42
2018-10-09T19:53:48.266Z,100381.35
2018-10-09T19:56:16.138Z,100379.97
2018-10-09T19:58:44.015Z,100377.40
2018-10-09T20:01:12.161Z,100374.17
2018-10-09T20:03:39.980Z,100374.08
2018-10-09T20:06:07.781Z,100385.95
2018-10-09T20:08:35.583Z,100375.66
2018-10-09T20:11:03.466Z,100376.00
2018-10-09T20:13:31.466Z,100372.14
2018-10-09T20:15:59.403Z,100372.17
2018-10-09T20:18:27.220Z,100373.98
2018-10-09T20:20:55.432Z,100369.91
2018-10-09T20:23:23.240Z,100372.02
2018-10-09T20:25:54.886Z,100377.27
2018-10-09T20:28:22.696Z,100377.80
2018-10-09T20:30:50.547Z,100379.30
2018-10-09T20:33:18.422Z,100378.98
2018-10-09T20:35:46.435Z,100381.31
2018-10-09T20:38:20.647Z,100382.23
2018-10-09T20:40:48.439Z,100380.14
2018-10-09T20:43:16.230Z,100384.59
2018-10-09T20:45:47.080Z,100387.86
2018-10-09T20:48:14.860Z,100386.91
2018-10-09T20:50:42.650Z,100388.36
2018-10-09T20:53:10.434Z,100387.86
2018-10-09T20:55:38.329Z,100381.59
2018-10-09T20:58:06.160Z,100385.91
2018-10-09T21:00:34.231Z,100382.09
2018-10-09T21:03:02.100Z,100387.55
2018-10-09T21:05:30.193Z,100390.88
2018-10-09T21:07:58.047Z,100384.48
2018-10-09T21:10:25.879Z,100389.57
2018-10-09T21:12:53.714Z,100391.25
2018-10-09T21:15:21.483Z,100394.02
2018-10-09T21:17:49.422Z,100393.20
2018-10-09T21:20:17.031Z,100389.63
2018-10-09T21:22:44.809Z,100386.88
2018-10-09T21:25:12.672Z,100389.33
2018-10-09T21:27:44.276Z,100380.43
2018-10-09T21:30:12.058Z,100377.62
2018-10-09T21:32:39.940Z,100383.42
2018-10-09T21:35:07.875Z,100378.44
2018-10-09T21:37:42.645Z,100381.14
2018-10-09T21:40:10.451Z,100380.66
2018-10-09T21:42:38.299Z,100381.03
2018-10-09T21:45:06.092Z,100370.83
2018-10-09T21:47:33.937Z,100374.06
2018-10-09T21:50:01.820Z,100367.49
2018-10-09T21:52:29.669Z,100370.75
2018-10-09T21:54:57.767Z,100374.41
2018-10-09T21:57:25.543Z,100375.72
2018-10-09T21:59:53.337Z,100365.86
2018-10-09T22:02:21.125Z,100361.16
2018-10-09T22:04:48.907Z,100359.02
2018-10-09T22:07:17.546Z,100353.50
2018-10-09T22:09:45.475Z,100356.61
2018-10-09T22:12:13.905Z,100348.30
2018-10-09T22:14:41.803Z,100351.23
2018-10-09T22:17:09.767Z,100358.02
2018-10-09T22:19:37.743Z,100358.63
2018-10-09T22:22:05.613Z,100366.44
2018-10-09T22:24:33.622Z,100361.55
2018-10-09T22:27:01.748Z,100365.63
2018-10-09T22:29:29.567Z,100362.93
2018-10-09T22:31:57.457Z,100366.71
2018-10-09T22:34:25.190Z,100356.14
2018-10-09T22:36:53.112Z,100361.77
2018-10-09T22:39:20.948Z,100361.15
2018-10-09T22:41:48.739Z,100357.64
2018-10-09T22:44:16.850Z,100356.08
2018-10-09T22:46:44.670Z,100353.89
2018-10-09T22:49:12.463Z,100353.34
2018-10-09T22:51:40.206Z,100356.89
2018-10-09T22:54:08.030Z,100357.70
2018-10-09T22:56:35.783Z,100362.02
2018-10-09T22:59:03.748Z,100364.28
2018-10-09T23:01:31.543Z,100366.09
2018-10-09T23:03:59.438Z,100361.16
2018-10-09T23:06:27.454Z,100357.03
2018-10-09T23:08:55.362Z,100364.15
2018-10-09T23:11:26.744Z,100358.45
2018-10-09T23:13:54.604Z,100362.80
2018-10-09T23:16:22.430Z,100355.73
2018-10-09T23:18:50.257Z,100361.17
2018-10-09T23:21:18.203Z,100357.41
2018-10-09T23:23:46.012Z,100357.87
2018-10-09T23:26:13.878Z,100347.40
2018-10-09T23:28:41.679Z,100357.88
2018-10-09T23:31:09.531Z,100358.38
2018-10-09T23:33:37.517Z,100351.66
2018-10-09T23:36:05.324Z,100354.64
2018-10-09T23:38:33.167Z,100353.48
2018-10-09T23:41:01.684Z,100353.33
2018-10-09T23:43:29.493Z,100351.52
2018-10-09T23:45:57.415Z,100351.52
2018-10-09T23:48:25.471Z,100344.81
2018-10-09T23:50:53.270Z,100340.55
2018-10-09T23:53:21.170Z,100332.19
2018-10-09T23:55:49.119Z,100332.97
2018-10-09T23:58:16.907Z,100325.91
